createdAt,value
2024-02-13T00:02:19.328Z,14.80
2024-02-13T00:04:50.242Z,14.40
2024-02-13T00:07:20.341Z,14.18
2024-02-13T00:09:50.172Z,12.93
2024-02-13T00:12:19.913Z,15.35
2024-02-13T00:14:52.753Z,16.58
2024-02-13T00:17:22.699Z,16.30
2024-02-13T00:19:53.932Z,16.13
2024-02-13T00:22:23.751Z,17.35
2024-02-13T00:24:53.858Z,16.83
2024-02-13T00:27:23.740Z,15.63
2024-02-13T00:29:56.102Z,15.60
2024-02-13T00:32:25.942Z,15.10
2024-02-13T00:34:56.760Z,14.52
2024-02-13T00:37:27.008Z,16.35
2024-02-13T00:39:57.223Z,16.60
2024-02-13T00:42:27.620Z,15.90
2024-02-13T00:45:01.961Z,16.42
2024-02-13T00:47:32.844Z,15.45
2024-02-13T00:50:03.008Z,16.83
2024-02-13T00:52:33.686Z,15.77
2024-02-13T00:55:04.363Z,15.75
2024-02-13T00:57:34.117Z,16.08
2024-02-13T01:00:10.840Z,16.45
2024-02-13T01:02:40.789Z,16.35
2024-02-13T01:05:11.126Z,16.88
2024-02-13T01:07:41.499Z,16.90
2024-02-13T01:10:13.153Z,16.48
2024-02-13T01:12:42.932Z,17.30
2024-02-13T01:15:18.628Z,18.95
2024-02-13T01:17:48.567Z,18.17
2024-02-13T01:20:19.876Z,19.35
2024-02-13T01:22:49.637Z,19.35
2024-02-13T01:25:19.452Z,18.98
2024-02-13T01:27:49.450Z,18.00
2024-02-13T01:30:21.869Z,19.02
2024-02-13T01:32:51.721Z,19.70
2024-02-13T01:35:21.646Z,19.48
2024-02-13T01:37:51.621Z,20.67
2024-02-13T01:40:21.573Z,21.15
2024-02-13T01:42:52.100Z,21.17
2024-02-13T01:45:25.666Z,22.08
2024-02-13T01:47:56.202Z,23.63
2024-02-13T01:50:28.909Z,23.38
2024-02-13T01:52:58.691Z,23.85
2024-02-13T01:55:30.997Z,24.60
2024-02-13T01:58:03.618Z,24.13
2024-02-13T02:00:36.492Z,25.30
2024-02-13T02:03:07.690Z,22.60
2024-02-13T02:05:37.840Z,23.95
2024-02-13T02:08:08.635Z,22.35
2024-02-13T02:10:39.841Z,21.08
2024-02-13T02:13:09.618Z,20.27
2024-02-13T02:15:42.507Z,20.88
2024-02-13T02:18:13.991Z,19.63
2024-02-13T02:20:46.113Z,20.20
2024-02-13T02:23:15.994Z,19.63
2024-02-13T02:25:48.532Z,18.20
2024-02-13T02:28:19.296Z,18.05
2024-02-13T02:30:50.041Z,19.50
2024-02-13T02:33:19.855Z,17.25
2024-02-13T02:35:50.007Z,19.00
2024-02-13T02:38:20.251Z,18.75
2024-02-13T02:40:52.610Z,17.83
2024-02-13T02:43:22.532Z,20.30
2024-02-13T02:45:52.404Z,19.10
2024-02-13T02:48:22.541Z,21.25
2024-02-13T02:50:52.316Z,21.85
2024-02-13T02:53:22.232Z,21.20
2024-02-13T02:55:52.605Z,22.23
2024-02-13T02:58:22.750Z,23.40
2024-02-13T03:00:53.567Z,23.30
2024-02-13T03:03:23.745Z,23.60
2024-02-13T03:05:55.903Z,22.15
2024-02-13T03:08:25.835Z,23.10
2024-02-13T03:10:58.158Z,24.23
2024-02-13T03:13:27.865Z,22.35
2024-02-13T03:15:57.887Z,24.02
2024-02-13T03:18:28.150Z,23.33
2024-02-13T03:20:58.335Z,20.25
2024-02-13T03:23:30.216Z,20.52
2024-02-13T03:26:02.580Z,21.35
2024-02-13T03:28:32.268Z,23.10
2024-02-13T03:31:01.993Z,22.05
2024-02-13T03:33:32.190Z,21.33
2024-02-13T03:36:02.633Z,20.05
2024-02-13T03:38:32.407Z,21.48
2024-02-13T03:41:04.757Z,21.92
2024-02-13T03:43:34.468Z,23.02
2024-02-13T03:46:04.478Z,20.35
2024-02-13T03:48:34.579Z,19.23
2024-02-13T03:51:05.016Z,20.83
2024-02-13T03:53:36.920Z,21.33
2024-02-13T03:56:10.136Z,20.10
2024-02-13T03:58:39.899Z,20.00
2024-02-13T04:01:10.043Z,21.15
2024-02-13T04:03:42.524Z,20.30
2024-02-13T04:06:13.503Z,19.70
2024-02-13T04:08:46.003Z,22.27
2024-02-13T04:11:18.617Z,20.75
2024-02-13T04:13:48.472Z,19.42
2024-02-13T04:16:18.247Z,19.83
2024-02-13T04:18:48.130Z,18.35
2024-02-13T04:21:21.333Z,17.75
2024-02-13T04:23:52.695Z,18.08
2024-02-13T04:26:35.696Z,17.23
2024-02-13T04:29:07.060Z,17.13
2024-02-13T04:31:39.873Z,16.45
2024-02-13T04:34:10.404Z,14.52
2024-02-13T04:36:41.635Z,14.70
2024-02-13T04:39:12.808Z,15.18
2024-02-13T04:41:46.196Z,14.18
2024-02-13T04:44:16.297Z,14.10
2024-02-13T04:46:46.058Z,13.20
2024-02-13T04:49:15.908Z,14.43
2024-02-13T04:51:45.716Z,14.25
2024-02-13T04:54:15.538Z,14.73
2024-02-13T04:56:50.375Z,13.40
2024-02-13T04:59:22.665Z,14.50
2024-02-13T05:01:53.458Z,13.38
2024-02-13T05:04:50.409Z,13.20
2024-02-13T05:07:28.178Z,13.02
2024-02-13T05:09:58.301Z,13.90
2024-02-13T05:12:30.671Z,14.48
2024-02-13T05:15:01.022Z,14.18
2024-02-13T05:17:31.804Z,14.63
2024-02-13T05:20:02.104Z,15.85
2024-02-13T05:22:31.860Z,14.35
2024-02-13T05:25:02.453Z,14.50
2024-02-13T05:27:35.635Z,15.70
2024-02-13T05:30:06.290Z,16.23
2024-02-13T05:32:36.129Z,14.10
2024-02-13T05:35:06.057Z,15.70
2024-02-13T05:37:37.565Z,15.82
2024-02-13T05:40:11.401Z,14.55
2024-02-13T05:42:44.264Z,15.82
2024-02-13T05:45:14.279Z,13.15
2024-02-13T05:47:44.093Z,15.05
2024-02-13T05:50:17.834Z,15.77
2024-02-13T05:52:49.440Z,14.70
2024-02-13T05:55:19.701Z,14.75
2024-02-13T05:57:52.090Z,15.10
2024-02-13T06:00:26.006Z,15.18
2024-02-13T06:02:56.686Z,15.90
2024-02-13T06:05:27.473Z,15.80
2024-02-13T06:07:57.423Z,14.55
2024-02-13T06:10:27.343Z,15.43
2024-02-13T06:12:59.758Z,15.60
2024-02-13T06:15:29.636Z,15.25
2024-02-13T06:17:59.461Z,15.65
2024-02-13T06:20:29.294Z,14.40
2024-02-13T06:22:59.217Z,15.90
2024-02-13T06:25:29.127Z,15.77
2024-02-13T06:28:01.512Z,15.60
2024-02-13T06:30:33.337Z,13.75
2024-02-13T06:33:04.383Z,14.80
2024-02-13T06:35:34.922Z,14.70
2024-02-13T06:38:05.003Z,14.13
2024-02-13T06:40:35.545Z,13.65
2024-02-13T06:43:08.156Z,13.77
2024-02-13T06:45:38.079Z,13.57
2024-02-13T06:48:08.534Z,13.27
2024-02-13T06:50:38.499Z,13.77
2024-02-13T06:53:08.830Z,12.20
2024-02-13T06:55:38.577Z,12.32
2024-02-13T06:58:14.764Z,12.48
2024-02-13T07:00:49.001Z,11.20
2024-02-13T07:03:18.846Z,12.13
2024-02-13T07:05:48.857Z,12.35
2024-02-13T07:08:18.939Z,11.77
2024-02-13T07:10:51.238Z,11.05
2024-02-13T07:13:23.982Z,9.90
2024-02-13T07:15:54.486Z,10.02
2024-02-13T07:18:27.908Z,11.55
2024-02-13T07:21:03.232Z,9.25
2024-02-13T07:23:37.949Z,10.07
2024-02-13T07:26:07.926Z,9.93
2024-02-13T07:28:40.482Z,9.38
2024-02-13T07:31:12.307Z,8.93
2024-02-13T07:33:43.022Z,9.35
2024-02-13T07:36:13.141Z,9.52
2024-02-13T07:38:43.260Z,9.52
2024-02-13T07:41:15.143Z,9.20
2024-02-13T07:43:47.898Z,8.70
2024-02-13T07:46:18.941Z,8.73
2024-02-13T07:48:53.286Z,8.70
2024-02-13T07:51:23.241Z,8.85
2024-02-13T07:53:53.092Z,8.00
2024-02-13T07:56:30.103Z,7.90
2024-02-13T07:59:03.212Z,8.45
2024-02-13T08:01:32.972Z,7.30
2024-02-13T08:04:02.900Z,8.00
2024-02-13T08:06:33.035Z,7.40
2024-02-13T08:09:08.107Z,8.13
2024-02-13T08:11:38.119Z,6.93
2024-02-13T08:14:10.795Z,6.15
2024-02-13T08:16:40.689Z,6.82
2024-02-13T08:19:24.900Z,6.40
2024-02-13T08:23:27.514Z,6.80
2024-02-13T08:26:02.970Z,6.22
2024-02-13T08:31:34.872Z,6.05
2024-02-13T08:34:10.101Z,5.60
2024-02-13T08:57:04.166Z,5.75
2024-02-13T09:01:28.353Z,5.70
2024-02-13T09:03:58.153Z,5.55
2024-02-13T09:06:28.107Z,5.65
2024-02-13T09:09:00.897Z,5.35
2024-02-13T09:11:33.118Z,5.28
2024-02-13T09:14:03.583Z,4.95
2024-02-13T09:16:36.405Z,5.20
2024-02-13T09:19:08.582Z,5.30
2024-02-13T09:21:38.712Z,5.00
2024-02-13T09:24:13.394Z,5.10
2024-02-13T09:26:43.173Z,5.07
2024-02-13T09:29:13.360Z,5.40
2024-02-13T09:31:47.252Z,5.40
2024-02-13T09:36:47.870Z,5.13
2024-02-13T09:39:20.187Z,4.53
2024-02-13T09:41:52.272Z,4.50
2024-02-13T09:44:24.819Z,4.32
2024-02-13T09:46:56.248Z,4.53
2024-02-13T09:49:26.844Z,4.32
2024-02-13T09:52:07.336Z,4.03
2024-02-13T09:54:46.102Z,3.83
2024-02-13T09:57:28.731Z,3.20
2024-02-13T10:00:25.895Z,3.50
2024-02-13T10:06:50.003Z,2.95
2024-02-13T10:10:16.344Z,2.60
2024-02-13T10:12:56.478Z,2.50
2024-02-13T10:19:03.732Z,2.63
2024-02-13T10:24:23.966Z,2.47
2024-02-13T10:27:45.946Z,2.25
2024-02-13T10:31:46.412Z,2.13
2024-02-13T10:35:15.901Z,2.30
2024-02-13T10:38:36.773Z,2.30
2024-02-13T10:51:33.698Z,2.75
2024-02-13T10:55:42.651Z,2.63
2024-02-13T10:59:27.465Z,2.45
2024-02-13T11:02:03.083Z,2.10
2024-02-13T11:08:08.706Z,2.33
2024-02-13T11:14:28.520Z,2.55
2024-02-13T11:17:04.458Z,2.00
2024-02-13T11:19:45.993Z,2.10
2024-02-13T11:22:19.161Z,2.15
2024-02-13T11:24:53.804Z,2.15
2024-02-13T11:27:30.123Z,2.22
2024-02-13T11:30:04.006Z,1.88
2024-02-13T11:33:26.068Z,2.03
2024-02-13T11:39:15.803Z,1.92
2024-02-13T11:41:45.567Z,1.85
2024-02-13T11:44:23.752Z,1.85
2024-02-13T11:46:59.958Z,2.15
2024-02-13T11:49:53.282Z,2.00
2024-02-13T11:52:26.772Z,2.00
2024-02-13T12:37:02.905Z,2.13
2024-02-13T12:39:38.047Z,1.90
2024-02-13T12:42:17.159Z,2.00
2024-02-13T12:44:49.740Z,2.08
2024-02-13T12:47:20.800Z,1.95
2024-02-13T12:49:59.415Z,1.85
2024-02-13T12:52:29.220Z,1.80
2024-02-13T12:54:59.888Z,1.77
2024-02-13T12:57:32.335Z,1.75
2024-02-13T13:00:02.299Z,1.67
2024-02-13T13:02:34.314Z,1.80
2024-02-13T13:05:07.609Z,1.48
2024-02-13T13:07:41.904Z,1.58
2024-02-13T13:10:14.825Z,1.67
2024-02-13T13:12:46.254Z,1.90
2024-02-13T13:15:22.625Z,1.83
2024-02-13T13:17:56.055Z,1.52
2024-02-13T13:20:29.622Z,1.45
2024-02-13T13:23:02.550Z,1.60
2024-02-13T13:25:33.133Z,2.00
2024-02-13T13:28:06.804Z,1.90
2024-02-13T13:33:08.040Z,3.05
2024-02-13T13:35:41.468Z,2.17
2024-02-13T13:38:11.461Z,2.00
2024-02-13T13:40:41.379Z,1.55
2024-02-13T13:43:12.407Z,1.30
2024-02-13T13:45:55.121Z,1.50
2024-02-13T13:48:26.568Z,1.70
2024-02-13T13:50:59.485Z,1.60
2024-02-13T13:53:29.267Z,1.80
2024-02-13T13:55:59.471Z,1.58
2024-02-13T13:58:31.318Z,1.40
2024-02-13T14:01:01.457Z,1.50
2024-02-13T14:03:33.354Z,1.17
2024-02-13T14:06:06.176Z,1.48
2024-02-13T14:08:39.816Z,1.35
2024-02-13T14:11:10.004Z,4.13
2024-02-13T14:13:39.978Z,2.88
2024-02-13T14:16:10.438Z,1.90
2024-02-13T14:18:40.706Z,1.33
2024-02-13T14:21:13.997Z,1.67
2024-02-13T14:23:44.219Z,1.83
2024-02-13T14:26:14.573Z,1.42
2024-02-13T14:28:44.303Z,1.80
2024-02-13T14:31:14.056Z,1.80
2024-02-13T14:33:44.012Z,1.90
2024-02-13T14:36:16.872Z,1.88
2024-02-13T14:38:47.001Z,2.30
2024-02-13T14:41:17.964Z,1.85
2024-02-13T14:43:49.225Z,1.52
2024-02-13T14:46:18.967Z,1.75
2024-02-13T14:48:49.922Z,1.90
2024-02-13T14:51:23.720Z,1.75
2024-02-13T14:53:53.607Z,2.17
2024-02-13T14:56:23.461Z,1.80
2024-02-13T14:58:53.249Z,2.10
2024-02-13T15:01:26.169Z,2.10
2024-02-13T15:03:56.250Z,1.77
2024-02-13T15:06:28.759Z,1.73
2024-02-13T15:08:58.686Z,1.80
2024-02-13T15:11:28.721Z,1.88
2024-02-13T15:14:00.701Z,2.28
2024-02-13T15:16:31.570Z,1.60
2024-02-13T15:19:04.765Z,1.85
2024-02-13T15:21:37.243Z,1.83
2024-02-13T15:24:09.653Z,1.90
2024-02-13T15:26:39.760Z,1.70
2024-02-13T15:29:11.321Z,2.03
2024-02-13T15:31:42.106Z,1.88
2024-02-13T15:34:12.147Z,4.50
2024-02-13T15:37:02.386Z,2.72
2024-02-13T15:39:45.547Z,2.25
2024-02-13T15:42:27.754Z,1.80
2024-02-13T15:45:10.115Z,2.22
2024-02-13T15:47:40.234Z,2.17
2024-02-13T15:50:12.534Z,2.22
2024-02-13T15:52:44.968Z,1.98
2024-02-13T15:55:18.240Z,2.20
2024-02-13T15:57:48.459Z,2.33
2024-02-13T16:00:21.761Z,2.40
2024-02-13T16:02:51.654Z,2.30
2024-02-13T16:05:27.746Z,1.90
2024-02-13T16:08:00.714Z,2.28
2024-02-13T16:10:33.169Z,2.13
2024-02-13T16:13:03.387Z,2.35
2024-02-13T16:15:33.771Z,2.22
2024-02-13T16:18:04.380Z,2.28
2024-02-13T16:20:34.456Z,2.20
2024-02-13T16:23:10.153Z,2.28
2024-02-13T16:25:39.942Z,2.50
2024-02-13T16:28:10.090Z,2.50
2024-02-13T16:33:13.307Z,2.42
2024-02-13T16:35:43.151Z,2.58
2024-02-13T16:38:16.720Z,2.45
2024-02-13T16:40:47.727Z,2.70
2024-02-13T16:43:17.665Z,2.70
2024-02-13T16:45:47.958Z,3.05
2024-02-13T16:48:18.212Z,2.80
2024-02-13T16:50:48.176Z,3.00
2024-02-13T16:53:22.967Z,3.30
2024-02-13T16:55:52.768Z,3.90
2024-02-13T16:58:22.849Z,3.35
2024-02-13T17:00:53.816Z,3.22
2024-02-13T17:03:23.796Z,3.67
2024-02-13T17:05:54.223Z,3.60
2024-02-13T17:08:26.751Z,3.58
2024-02-13T17:10:56.512Z,3.63
2024-02-13T17:13:26.291Z,3.28
2024-02-13T17:15:56.791Z,3.33
2024-02-13T17:18:26.893Z,3.55
2024-02-13T17:20:57.294Z,2.97
2024-02-13T17:23:29.744Z,3.00
2024-02-13T17:25:59.532Z,3.17
2024-02-13T17:28:29.370Z,3.10
2024-02-13T17:30:59.321Z,3.50
2024-02-13T17:33:29.292Z,3.30
2024-02-13T17:36:01.190Z,3.78
2024-02-13T17:38:37.553Z,3.20
2024-02-13T17:41:09.229Z,3.35
2024-02-13T17:43:39.188Z,3.35
2024-02-13T17:46:09.204Z,3.53
2024-02-13T17:48:39.676Z,3.35
2024-02-13T17:51:09.974Z,4.22
2024-02-13T17:53:42.573Z,3.67
2024-02-13T17:56:13.853Z,4.03
2024-02-13T17:58:43.806Z,4.00
2024-02-13T18:01:14.751Z,4.20
2024-02-13T18:03:44.796Z,4.13
2024-02-13T18:06:15.542Z,4.00
2024-02-13T18:08:48.042Z,3.63
2024-02-13T18:11:17.872Z,5.32
2024-02-13T18:13:47.606Z,4.20
2024-02-13T18:16:17.521Z,7.75
2024-02-13T18:18:48.445Z,4.80
2024-02-13T18:21:18.605Z,4.63
2024-02-13T18:23:55.520Z,4.65
2024-02-13T18:26:26.009Z,4.68
2024-02-13T18:28:55.895Z,4.60
2024-02-13T18:31:26.365Z,4.75
2024-02-13T18:33:56.364Z,4.82
2024-02-13T18:36:28.907Z,4.53
2024-02-13T18:39:01.343Z,4.80
2024-02-13T18:41:31.239Z,4.97
2024-02-13T18:44:01.047Z,4.50
2024-02-13T18:46:32.322Z,4.57
2024-02-13T18:49:02.554Z,4.70
2024-02-13T18:51:32.443Z,5.10
2024-02-13T18:54:05.103Z,5.15
2024-02-13T18:56:35.935Z,4.88
2024-02-13T18:59:06.452Z,4.88
2024-02-13T19:01:36.269Z,5.63
2024-02-13T19:04:06.189Z,5.45
2024-02-13T19:06:36.007Z,4.88
2024-02-13T19:09:09.433Z,5.13
2024-02-13T19:11:39.572Z,5.45
2024-02-13T19:14:12.352Z,5.05
2024-02-13T19:16:45.995Z,5.32
2024-02-13T19:19:19.523Z,5.35
2024-02-13T19:21:49.454Z,5.15
2024-02-13T19:24:23.233Z,4.82
2024-02-13T19:26:53.980Z,4.80
2024-02-13T19:29:23.828Z,5.05
2024-02-13T19:31:53.766Z,5.28
2024-02-13T19:34:28.116Z,5.07
2024-02-13T19:36:58.366Z,4.90
2024-02-13T19:39:34.662Z,4.80
2024-02-13T19:42:05.468Z,5.30
2024-02-13T19:44:35.379Z,4.90
2024-02-13T19:47:05.137Z,5.15
2024-02-13T19:49:34.908Z,5.00
2024-02-13T19:52:04.810Z,5.30
2024-02-13T19:54:37.361Z,5.03
2024-02-13T19:57:07.910Z,5.07
2024-02-13T19:59:39.067Z,4.88
2024-02-13T20:02:09.296Z,4.95
2024-02-13T20:04:39.097Z,4.93
2024-02-13T20:07:09.002Z,5.30
2024-02-13T20:09:42.347Z,5.28
2024-02-13T20:12:12.277Z,5.27
2024-02-13T20:14:42.187Z,5.30
2024-02-13T20:17:12.074Z,4.75
2024-02-13T20:19:43.840Z,4.85
2024-02-13T20:22:14.731Z,5.15
2024-02-13T20:24:47.310Z,4.90
2024-02-13T20:27:17.449Z,5.47
2024-02-13T20:29:47.622Z,5.03
2024-02-13T20:32:17.681Z,5.43
2024-02-13T20:34:47.839Z,4.80
2024-02-13T20:37:20.629Z,5.47
2024-02-13T20:39:53.557Z,5.05
2024-02-13T20:42:25.085Z,4.80
2024-02-13T20:45:01.331Z,5.03
2024-02-13T20:47:37.495Z,4.95
2024-02-13T20:50:08.311Z,5.28
2024-02-13T20:52:38.470Z,5.35
2024-02-13T20:55:14.929Z,5.50
2024-02-13T20:57:45.072Z,5.80
2024-02-13T21:00:16.676Z,5.90
2024-02-13T21:02:49.310Z,5.63
2024-02-13T21:05:23.011Z,5.80
2024-02-13T21:07:52.866Z,6.65
2024-02-13T21:10:25.390Z,6.20
2024-02-13T21:12:56.445Z,5.82
2024-02-13T21:15:26.360Z,5.85
2024-02-13T21:17:56.267Z,5.88
2024-02-13T21:20:31.254Z,5.35
2024-02-13T21:23:13.712Z,6.18
2024-02-13T21:25:46.422Z,5.65
2024-02-13T21:28:16.233Z,5.40
2024-02-13T21:30:46.453Z,5.75
2024-02-13T21:33:16.668Z,5.55
2024-02-13T21:35:46.672Z,5.95
2024-02-13T21:38:16.563Z,5.85
2024-02-13T21:40:49.246Z,6.05
2024-02-13T21:43:19.207Z,5.93
2024-02-13T21:45:49.335Z,5.70
2024-02-13T21:48:19.245Z,6.07
2024-02-13T21:50:49.240Z,5.72
2024-02-13T21:53:19.067Z,5.47
2024-02-13T21:55:51.580Z,5.30
2024-02-13T21:58:21.564Z,5.50
2024-02-13T22:00:52.100Z,5.70
2024-02-13T22:03:21.973Z,5.15
2024-02-13T22:05:51.845Z,5.38
2024-02-13T22:08:21.720Z,5.00
2024-02-13T22:10:54.756Z,5.85
2024-02-13T22:13:24.608Z,9.00
2024-02-13T22:15:56.040Z,5.10
2024-02-13T22:18:26.747Z,5.53
2024-02-13T22:20:56.906Z,5.20
2024-02-13T22:23:26.894Z,5.07
2024-02-13T22:26:04.990Z,4.80
2024-02-13T22:28:34.768Z,5.18
2024-02-13T22:31:04.716Z,5.20
2024-02-13T22:33:34.693Z,4.70
2024-02-13T22:36:04.926Z,5.10
2024-02-13T22:38:34.767Z,4.63
2024-02-13T22:41:11.177Z,5.40
2024-02-13T22:43:41.044Z,4.78
2024-02-13T22:46:10.834Z,4.82
2024-02-13T22:48:41.616Z,4.88
2024-02-13T22:51:12.009Z,4.88
2024-02-13T22:53:41.936Z,4.10
2024-02-13T22:56:14.568Z,4.57
2024-02-13T22:58:44.392Z,4.20
2024-02-13T23:01:15.572Z,4.35
2024-02-13T23:03:45.385Z,4.47
2024-02-13T23:06:15.375Z,4.05
2024-02-13T23:08:45.516Z,4.18
2024-02-13T23:11:18.044Z,3.92
2024-02-13T23:13:51.046Z,4.15
2024-02-13T23:16:24.666Z,4.25
2024-02-13T23:18:55.202Z,3.97
2024-02-13T23:21:25.548Z,4.30
2024-02-13T23:23:55.371Z,3.95
2024-02-13T23:26:27.846Z,3.67
2024-02-13T23:28:57.790Z,3.97
2024-02-13T23:31:27.994Z,3.75
2024-02-13T23:33:58.015Z,4.00
2024-02-13T23:36:27.936Z,3.67
2024-02-13T23:38:57.804Z,3.40
2024-02-13T23:41:30.229Z,3.42
2024-02-13T23:44:00.732Z,3.63
2024-02-13T23:46:30.652Z,3.42
2024-02-13T23:49:00.773Z,3.58
2024-02-13T23:51:30.726Z,3.40
2024-02-13T23:54:00.836Z,3.40
2024-02-13T23:56:33.386Z,3.40
2024-02-13T23:59:04.274Z,3.78
